Aviation Digital Data Service (ADDS)

Output produced by METARs form (0359 UTC 23 September 2017)
found at http://www.aviationweather.gov/adds/metars/
 
KRWF 230353Z AUTO 18014KT 10SM CLR 28/19 A2980 RMK AO2 SLP082 T02780189
KMSP 230353Z 19016G23KT 10SM BKN160 29/21 A2984 RMK AO2 SLP099 T02940206